createdAt,value
2023-03-26T00:00:04.797Z,43.3526
2023-03-26T00:01:06.431Z,43.3574
2023-03-26T00:02:08.255Z,43.2992
2023-03-26T00:03:09.703Z,43.2960
2023-03-26T00:04:11.468Z,43.3706
2023-03-26T00:05:13.102Z,43.3564
2023-03-26T00:06:14.664Z,43.4040
2023-03-26T00:07:16.403Z,43.4061
2023-03-26T00:08:18.068Z,43.3764
2023-03-26T00:09:19.578Z,43.3118
2023-03-26T00:10:21.365Z,43.3321
2023-03-26T00:11:22.937Z,43.4155
2023-03-26T00:12:24.584Z,43.4194
2023-03-26T00:13:26.231Z,43.3737
2023-03-26T00:14:27.862Z,43.3634
2023-03-26T00:15:29.484Z,43.3488
2023-03-26T00:16:31.197Z,43.3873
2023-03-26T00:17:32.830Z,43.4195
2023-03-26T00:18:34.504Z,43.5071
2023-03-26T00:19:36.090Z,43.4023
2023-03-26T00:20:37.740Z,43.4735
2023-03-26T00:21:39.394Z,43.4508
2023-03-26T00:22:41.109Z,43.4407
2023-03-26T00:23:42.671Z,43.4052
2023-03-26T00:24:44.339Z,43.4368
2023-03-26T00:25:46.771Z,43.4278
2023-03-26T00:26:47.648Z,43.3840
2023-03-26T00:27:49.294Z,43.4296
2023-03-26T00:28:50.953Z,43.3827
2023-03-26T00:29:52.563Z,43.4623
2023-03-26T00:30:54.279Z,43.4628
2023-03-26T00:31:55.871Z,43.4341
2023-03-26T00:32:57.570Z,43.4462
2023-03-26T00:33:59.161Z,43.4830
2023-03-26T00:35:00.845Z,43.4441
2023-03-26T00:36:04.397Z,43.4344
2023-03-26T00:37:04.125Z,43.4125
2023-03-26T00:38:05.776Z,43.4066
2023-03-26T00:39:07.417Z,43.4329
2023-03-26T00:40:09.040Z,43.4068
2023-03-26T00:41:10.712Z,43.4066
2023-03-26T00:42:12.342Z,43.4371
2023-03-26T00:43:14.019Z,43.4568
2023-03-26T00:44:15.643Z,43.4217
2023-03-26T00:45:17.304Z,43.4056
2023-03-26T00:46:18.998Z,43.3867
2023-03-26T00:47:20.761Z,43.4100
2023-03-26T00:48:28.846Z,43.4352
2023-03-26T00:49:23.890Z,43.4293
2023-03-26T00:50:25.529Z,43.4095
2023-03-26T00:51:27.218Z,43.4235
2023-03-26T00:52:28.833Z,43.4158
2023-03-26T00:53:30.667Z,43.4021
2023-03-26T00:54:32.142Z,43.4162
2023-03-26T00:55:33.805Z,43.4032
2023-03-26T00:56:35.476Z,43.3935
2023-03-26T00:57:37.185Z,43.4414
2023-03-26T00:58:38.751Z,43.4039
2023-03-26T00:59:40.403Z,43.4123
2023-03-26T01:00:42.034Z,43.4211
2023-03-26T01:01:43.726Z,43.4251
2023-03-26T01:02:45.435Z,43.4441
2023-03-26T01:04:04.830Z,43.4523
2023-03-26T01:04:48.759Z,43.4021
2023-03-26T01:05:50.303Z,43.3703
2023-03-26T01:06:51.916Z,43.3668
2023-03-26T01:07:53.590Z,43.3856
2023-03-26T01:08:55.251Z,43.3966
2023-03-26T01:09:56.871Z,43.4055
2023-03-26T01:10:58.514Z,43.3560
2023-03-26T01:12:00.181Z,43.3510
2023-03-26T01:13:01.812Z,43.3803
2023-03-26T01:14:03.502Z,43.4070
2023-03-26T01:15:05.124Z,43.4743
2023-03-26T01:16:06.822Z,43.4235
2023-03-26T01:17:08.405Z,43.3740
2023-03-26T01:18:10.092Z,43.4161
2023-03-26T01:19:11.721Z,43.4290
2023-03-26T01:20:13.376Z,43.4050
2023-03-26T01:21:15.000Z,43.4042
2023-03-26T01:22:16.687Z,43.3899
2023-03-26T01:23:18.326Z,43.4096
2023-03-26T01:24:20.001Z,43.4584
2023-03-26T01:25:21.604Z,43.4047
2023-03-26T01:26:23.261Z,43.3912
2023-03-26T01:27:24.902Z,43.3807
2023-03-26T01:28:26.573Z,43.3801
2023-03-26T01:29:28.242Z,43.3732
2023-03-26T01:30:29.869Z,43.4020
2023-03-26T01:31:31.483Z,43.3915
2023-03-26T01:32:33.321Z,43.4546
2023-03-26T01:33:34.855Z,43.4037
2023-03-26T01:34:36.502Z,43.3881
2023-03-26T01:35:38.118Z,43.3928
2023-03-26T01:36:39.765Z,43.3972
2023-03-26T01:37:41.381Z,43.4339
2023-03-26T01:38:43.060Z,43.4946
2023-03-26T01:39:44.713Z,43.4637
2023-03-26T01:40:46.351Z,43.4318
2023-03-26T01:41:47.986Z,43.4675
2023-03-26T01:42:49.661Z,43.5121
2023-03-26T01:43:51.289Z,43.4838
2023-03-26T01:44:52.978Z,43.4812
2023-03-26T01:45:54.738Z,43.4117
2023-03-26T01:46:56.339Z,43.4840
2023-03-26T01:47:57.905Z,43.4579
2023-03-26T01:48:59.532Z,43.4330
2023-03-26T01:50:01.207Z,43.5479
2023-03-26T01:51:02.838Z,43.4358
2023-03-26T01:52:04.470Z,43.4629
2023-03-26T01:53:06.143Z,43.5090
2023-03-26T01:54:07.840Z,43.4746
2023-03-26T01:55:09.533Z,43.5467
2023-03-26T01:56:11.172Z,43.4093
2023-03-26T01:57:12.822Z,43.4448
2023-03-26T01:58:14.439Z,43.4215
2023-03-26T01:59:16.117Z,43.3843
2023-03-26T02:00:17.777Z,43.4154
2023-03-26T02:01:19.481Z,43.3779
2023-03-26T02:02:21.173Z,43.4169
2023-03-26T02:03:22.854Z,43.4221
2023-03-26T02:04:24.362Z,43.4758
2023-03-26T02:05:26.063Z,43.4590
2023-03-26T02:06:27.652Z,43.4911
2023-03-26T02:07:29.328Z,43.4942
2023-03-26T02:08:30.963Z,43.5357
2023-03-26T02:09:32.614Z,43.4560
2023-03-26T02:10:34.270Z,43.3884
2023-03-26T02:11:36.224Z,43.5057
2023-03-26T02:12:37.544Z,43.4787
2023-03-26T02:13:39.217Z,43.4802
2023-03-26T02:14:40.862Z,43.5559
2023-03-26T02:15:42.541Z,43.4651
2023-03-26T02:16:44.166Z,43.4021
2023-03-26T02:17:45.827Z,43.4665
2023-03-26T02:18:47.498Z,43.4309
2023-03-26T02:19:49.125Z,43.4521
2023-03-26T02:20:50.773Z,43.4541
2023-03-26T02:21:52.408Z,43.5900
2023-03-26T02:22:54.043Z,43.4991
2023-03-26T02:23:55.715Z,43.4603
2023-03-26T02:24:57.349Z,43.4385
2023-03-26T02:25:59.043Z,43.4744
2023-03-26T02:27:00.642Z,43.4330
2023-03-26T02:28:02.304Z,43.4406
2023-03-26T02:29:03.941Z,43.5442
2023-03-26T02:30:05.606Z,43.5027
2023-03-26T02:31:07.274Z,43.4454
2023-03-26T02:32:08.909Z,43.5027
2023-03-26T02:33:10.591Z,43.5405
2023-03-26T02:34:12.220Z,43.4756
2023-03-26T02:35:13.894Z,43.4357
2023-03-26T02:36:15.601Z,43.5337
2023-03-26T02:37:17.145Z,43.6198
2023-03-26T02:38:18.775Z,43.5542
2023-03-26T02:39:20.445Z,43.5634
2023-03-26T02:40:22.096Z,43.4829
2023-03-26T02:41:23.749Z,43.5545
2023-03-26T02:42:25.385Z,43.5287
2023-03-26T02:43:27.019Z,43.5527
2023-03-26T02:44:28.680Z,43.5616
2023-03-26T02:45:30.315Z,43.5775
2023-03-26T02:46:32.054Z,43.6973
2023-03-26T02:47:33.692Z,43.8762
2023-03-26T02:48:35.271Z,43.8736
2023-03-26T02:49:36.899Z,43.8892
2023-03-26T02:50:38.578Z,44.0326
2023-03-26T02:51:40.210Z,44.0346
2023-03-26T02:52:41.871Z,44.0585
2023-03-26T02:53:43.496Z,44.1262
2023-03-26T02:54:45.154Z,44.2378
2023-03-26T02:55:46.792Z,44.3748
2023-03-26T02:56:48.505Z,44.4504
2023-03-26T02:57:50.096Z,44.4207
2023-03-26T02:58:51.757Z,44.4247
2023-03-26T02:59:53.391Z,44.5497
2023-03-26T03:00:55.143Z,44.5401
2023-03-26T03:01:56.759Z,44.6093
2023-03-26T03:02:58.443Z,44.5386
2023-03-26T03:03:59.984Z,44.6129
2023-03-26T03:05:01.765Z,44.5831
2023-03-26T03:06:03.269Z,44.5800
2023-03-26T03:07:05.069Z,44.5661
2023-03-26T03:08:06.643Z,44.6173
2023-03-26T03:09:08.284Z,44.6544
2023-03-26T03:10:09.973Z,44.7935
2023-03-26T03:11:11.592Z,44.6833
2023-03-26T03:12:13.299Z,44.6757
2023-03-26T03:13:14.941Z,44.6313
2023-03-26T03:14:16.511Z,44.6797
2023-03-26T03:15:18.247Z,44.7106
2023-03-26T03:16:19.921Z,44.8002
2023-03-26T03:17:21.559Z,44.7864
2023-03-26T03:18:23.194Z,44.8220
2023-03-26T03:19:24.745Z,44.8472
2023-03-26T03:20:26.363Z,44.8546
2023-03-26T03:21:28.037Z,44.8348
2023-03-26T03:22:29.689Z,44.8763
2023-03-26T03:23:31.319Z,44.9355
2023-03-26T03:24:32.961Z,44.9334
2023-03-26T03:25:34.636Z,44.8786
2023-03-26T03:26:36.253Z,44.8367
2023-03-26T03:27:37.949Z,44.7919
2023-03-26T03:28:39.566Z,44.8356
2023-03-26T03:29:41.212Z,44.8152
2023-03-26T03:30:42.897Z,44.8619
2023-03-26T03:31:44.520Z,44.7638
2023-03-26T03:32:46.238Z,44.8036
2023-03-26T03:33:47.819Z,44.7467
2023-03-26T03:34:49.438Z,44.8196
2023-03-26T03:35:51.113Z,44.8282
2023-03-26T03:36:52.726Z,44.8162
2023-03-26T03:37:54.415Z,44.7516
2023-03-26T03:38:56.041Z,44.8247
2023-03-26T03:39:57.694Z,44.8165
2023-03-26T03:40:59.324Z,44.8198
2023-03-26T03:42:00.998Z,44.8130
2023-03-26T03:43:02.665Z,44.8233
2023-03-26T03:44:04.300Z,44.7499
2023-03-26T03:45:05.928Z,44.7999
2023-03-26T03:46:07.639Z,44.7606
2023-03-26T03:47:09.211Z,44.7466
2023-03-26T03:48:10.942Z,44.8192
2023-03-26T03:49:12.526Z,44.8051
2023-03-26T03:50:14.200Z,44.7788
2023-03-26T03:51:15.841Z,44.8290
2023-03-26T03:52:17.487Z,44.7802
2023-03-26T03:53:19.144Z,44.7838
2023-03-26T03:54:20.786Z,44.8208
2023-03-26T03:55:22.409Z,44.7187
2023-03-26T03:56:24.101Z,44.7165
2023-03-26T03:57:25.728Z,44.7228
2023-03-26T03:58:27.424Z,44.7965
2023-03-26T03:59:29.004Z,44.7573
2023-03-26T04:00:30.696Z,44.7635
2023-03-26T04:01:32.304Z,44.7864
2023-03-26T04:02:34.076Z,44.8329
2023-03-26T04:03:35.778Z,44.7878
2023-03-26T04:04:37.331Z,44.7048
2023-03-26T04:05:38.920Z,44.8107
2023-03-26T04:06:40.579Z,44.7435
2023-03-26T04:07:42.206Z,44.6830
2023-03-26T04:08:43.995Z,44.7403
2023-03-26T04:09:45.504Z,44.7513
2023-03-26T04:10:47.163Z,44.8276
2023-03-26T04:11:48.802Z,44.7325
2023-03-26T04:12:50.461Z,44.7734
2023-03-26T04:13:52.113Z,44.7956
2023-03-26T04:14:53.756Z,44.6815
2023-03-26T04:15:55.656Z,44.6593
2023-03-26T04:16:57.061Z,44.7543
2023-03-26T04:17:58.760Z,44.7086
2023-03-26T04:19:00.371Z,44.7841
2023-03-26T04:20:01.983Z,44.7441
2023-03-26T04:21:03.638Z,44.6842
2023-03-26T04:22:05.288Z,44.7435
2023-03-26T04:23:06.948Z,44.7889
2023-03-26T04:24:08.597Z,44.7045
2023-03-26T04:25:10.259Z,44.6817
2023-03-26T04:26:11.867Z,44.7503
2023-03-26T04:27:13.527Z,44.7260
2023-03-26T04:28:15.162Z,44.7325
2023-03-26T04:29:16.844Z,44.6174
2023-03-26T04:30:18.456Z,44.7905
2023-03-26T04:31:20.163Z,44.7162
2023-03-26T04:32:21.773Z,44.7025
2023-03-26T04:33:23.438Z,44.6707
2023-03-26T04:34:25.127Z,44.6825
2023-03-26T04:35:26.763Z,44.7700
2023-03-26T04:36:28.390Z,44.7841
2023-03-26T04:37:30.020Z,44.7077
2023-03-26T04:38:31.645Z,44.7140
2023-03-26T04:39:33.352Z,44.6878
2023-03-26T04:40:34.969Z,44.6796
2023-03-26T04:41:36.630Z,44.6813
2023-03-26T04:42:38.253Z,44.6525
2023-03-26T04:43:39.929Z,44.6533
2023-03-26T04:44:41.638Z,44.6477
2023-03-26T04:45:43.209Z,44.6831
2023-03-26T04:46:44.853Z,44.6665
2023-03-26T04:47:46.802Z,44.6478
2023-03-26T04:48:48.141Z,44.6730
2023-03-26T04:49:49.839Z,44.6591
2023-03-26T04:50:51.448Z,44.6057
2023-03-26T04:51:53.095Z,44.6464
2023-03-26T04:52:54.750Z,44.6559
2023-03-26T04:53:56.418Z,44.6196
2023-03-26T04:54:58.060Z,44.6935
2023-03-26T04:55:59.699Z,44.7255
2023-03-26T04:57:01.343Z,44.6978
2023-03-26T04:58:02.986Z,44.6777
2023-03-26T04:59:04.628Z,44.6442
2023-03-26T05:00:06.317Z,44.6033
2023-03-26T05:01:10.318Z,44.7263
2023-03-26T05:02:09.620Z,44.6223
2023-03-26T05:03:11.218Z,44.7141
2023-03-26T05:04:12.893Z,44.6678
2023-03-26T05:05:14.543Z,44.6561
2023-03-26T05:06:16.195Z,44.5992
2023-03-26T05:07:17.819Z,44.6548
2023-03-26T05:08:19.492Z,44.7462
2023-03-26T05:09:21.126Z,44.7147
2023-03-26T05:10:22.869Z,44.6458
2023-03-26T05:11:24.430Z,44.6683
2023-03-26T05:12:26.100Z,44.6402
2023-03-26T05:13:27.713Z,44.7374
2023-03-26T05:14:29.390Z,44.7014
2023-03-26T05:15:31.053Z,44.6043
2023-03-26T05:16:32.706Z,44.6430
2023-03-26T05:17:34.382Z,44.6371
2023-03-26T05:18:36.015Z,44.6030
2023-03-26T05:19:37.624Z,44.6070
2023-03-26T05:20:39.328Z,44.5568
2023-03-26T05:21:40.933Z,44.6308
2023-03-26T05:22:42.592Z,44.6283
2023-03-26T05:23:44.233Z,44.6192
2023-03-26T05:24:45.911Z,44.6388
2023-03-26T05:25:47.567Z,44.5667
2023-03-26T05:26:49.205Z,44.6308
2023-03-26T05:27:50.820Z,44.5881
2023-03-26T05:28:52.733Z,44.6225
2023-03-26T05:29:54.109Z,44.6261
2023-03-26T05:30:55.984Z,44.5939
2023-03-26T05:31:57.432Z,44.5571
2023-03-26T05:32:59.125Z,44.6436
2023-03-26T05:34:00.861Z,44.5864
2023-03-26T05:35:02.352Z,44.5999
2023-03-26T05:36:04.081Z,44.6273
2023-03-26T05:37:05.667Z,44.6027
2023-03-26T05:38:07.317Z,44.6249
2023-03-26T05:39:08.947Z,44.7102
2023-03-26T05:40:10.640Z,44.6455
2023-03-26T05:41:12.285Z,44.6172
2023-03-26T05:42:13.922Z,44.6504
2023-03-26T05:43:15.549Z,44.6564
2023-03-26T05:44:17.234Z,44.5953
2023-03-26T05:45:18.853Z,44.5592
2023-03-26T05:46:20.653Z,44.5136
2023-03-26T05:47:22.143Z,44.5563
2023-03-26T05:48:23.828Z,44.6174
2023-03-26T05:49:25.460Z,44.6225
2023-03-26T05:50:27.129Z,44.6405
2023-03-26T05:51:28.775Z,44.6077
2023-03-26T05:52:30.430Z,44.6993
2023-03-26T05:53:32.066Z,44.6354
2023-03-26T05:54:33.740Z,44.5737
2023-03-26T05:55:35.365Z,44.6355
2023-03-26T05:56:37.175Z,44.5926
2023-03-26T05:57:38.734Z,44.6315
2023-03-26T05:58:40.413Z,44.6200
2023-03-26T05:59:42.029Z,44.5807
2023-03-26T06:00:43.705Z,44.6101
2023-03-26T06:01:45.362Z,44.6251
2023-03-26T06:02:47.091Z,44.5249
2023-03-26T06:03:48.707Z,44.6249
2023-03-26T06:04:50.349Z,44.6599
2023-03-26T06:05:51.933Z,44.5990
2023-03-26T06:06:53.634Z,44.6317
2023-03-26T06:07:55.224Z,44.6439
2023-03-26T06:09:01.910Z,44.5749
2023-03-26T06:09:58.533Z,44.5487
2023-03-26T06:11:00.221Z,44.7057
2023-03-26T06:12:01.874Z,44.6163
2023-03-26T06:13:03.513Z,44.5876
2023-03-26T06:14:05.126Z,44.6052
2023-03-26T06:15:06.807Z,44.5694
2023-03-26T06:16:08.459Z,44.5503
2023-03-26T06:17:10.180Z,44.5519
2023-03-26T06:18:11.791Z,44.5382
2023-03-26T06:19:13.519Z,40.5803
2023-03-26T06:20:15.037Z,37.6474
2023-03-26T06:21:16.704Z,37.0755
2023-03-26T06:22:18.358Z,37.7856
2023-03-26T06:23:19.996Z,38.5038
2023-03-26T06:24:21.630Z,38.3830
2023-03-26T06:25:23.295Z,38.0057
2023-03-26T06:26:24.936Z,38.4287
2023-03-26T06:27:26.625Z,38.7876
2023-03-26T06:28:28.244Z,38.5260
2023-03-26T06:29:29.918Z,38.4762
2023-03-26T06:30:31.551Z,38.8039
2023-03-26T06:31:33.257Z,38.9340
2023-03-26T06:32:34.913Z,39.6570
2023-03-26T06:33:36.517Z,40.6140
2023-03-26T06:34:38.146Z,40.9927
2023-03-26T06:35:39.855Z,40.6920
2023-03-26T06:36:41.465Z,40.5830
2023-03-26T06:37:43.146Z,40.1303
2023-03-26T06:38:44.770Z,40.1327
2023-03-26T06:39:46.429Z,40.3738
2023-03-26T06:40:48.069Z,40.3729
2023-03-26T06:41:49.730Z,40.3413
2023-03-26T06:43:08.643Z,40.2007
2023-03-26T06:43:53.048Z,40.7682
2023-03-26T06:44:54.669Z,41.3972
2023-03-26T06:45:56.357Z,41.3595
2023-03-26T06:46:58.046Z,41.5989
2023-03-26T06:47:59.734Z,41.9540
2023-03-26T06:49:01.283Z,42.4103
2023-03-26T06:50:02.977Z,42.0510
2023-03-26T06:51:04.608Z,42.8427
2023-03-26T06:52:06.274Z,42.7819
2023-03-26T06:53:07.913Z,42.3935
2023-03-26T06:54:09.563Z,42.2407
2023-03-26T06:55:11.220Z,41.3719
2023-03-26T06:56:12.873Z,41.5916
2023-03-26T06:57:14.527Z,41.6045
2023-03-26T06:58:16.210Z,41.6146
2023-03-26T06:59:17.846Z,41.5391
2023-03-26T07:00:19.485Z,41.7449
2023-03-26T07:01:21.165Z,41.9322
2023-03-26T07:02:22.819Z,42.1384
2023-03-26T07:03:24.433Z,42.0990
2023-03-26T07:04:26.110Z,42.2350
2023-03-26T07:05:27.781Z,42.3491
2023-03-26T07:06:29.391Z,42.4821
2023-03-26T07:07:31.047Z,42.5694
2023-03-26T07:08:32.720Z,42.6474
2023-03-26T07:09:34.360Z,42.7058
2023-03-26T07:10:35.987Z,42.7890
2023-03-26T07:11:37.656Z,42.9131
2023-03-26T07:12:39.292Z,43.0210
2023-03-26T07:13:40.978Z,43.1168
2023-03-26T07:14:42.601Z,43.2043
2023-03-26T07:15:44.282Z,43.3694
2023-03-26T07:16:45.903Z,43.4546
2023-03-26T07:17:47.577Z,43.8498
2023-03-26T07:18:49.452Z,44.1850
2023-03-26T07:19:50.874Z,44.3888
2023-03-26T07:20:52.605Z,44.3243
2023-03-26T07:21:54.177Z,44.3052
2023-03-26T07:22:55.801Z,44.2633
2023-03-26T07:23:57.493Z,44.4409
2023-03-26T07:24:59.111Z,44.5464
2023-03-26T07:26:00.786Z,44.5203
2023-03-26T07:27:02.429Z,44.5391
2023-03-26T07:28:04.088Z,44.6473
2023-03-26T07:29:05.728Z,45.0375
2023-03-26T07:30:07.396Z,45.1114
2023-03-26T07:31:09.015Z,45.1625
2023-03-26T07:32:10.680Z,45.3407
2023-03-26T07:33:12.314Z,45.5177
2023-03-26T07:34:14.011Z,45.3573
2023-03-26T07:35:15.629Z,45.4457
2023-03-26T07:36:17.304Z,45.6184
2023-03-26T07:37:18.925Z,45.4478
2023-03-26T07:38:20.592Z,45.3052
2023-03-26T07:39:22.250Z,45.1316
2023-03-26T07:40:23.900Z,45.0997
2023-03-26T07:41:25.537Z,45.0613
2023-03-26T07:42:27.223Z,45.0410
2023-03-26T07:43:28.852Z,45.1497
2023-03-26T07:44:30.525Z,45.1748
2023-03-26T07:45:32.165Z,45.3019
2023-03-26T07:46:33.800Z,45.2324
2023-03-26T07:47:35.478Z,45.3821
2023-03-26T07:48:37.104Z,45.3505
2023-03-26T07:49:38.758Z,45.4805
2023-03-26T07:50:40.410Z,45.6605
2023-03-26T07:51:42.048Z,45.6078
2023-03-26T07:52:43.708Z,45.6746
2023-03-26T07:53:45.341Z,45.9148
2023-03-26T07:54:47.048Z,45.9617
2023-03-26T07:55:48.663Z,45.9376
2023-03-26T07:56:50.386Z,45.8444
2023-03-26T07:57:51.936Z,45.7692
2023-03-26T07:58:53.615Z,45.6252
2023-03-26T07:59:55.266Z,45.4556
2023-03-26T08:00:57.125Z,45.3148
2023-03-26T08:01:58.543Z,45.5700
2023-03-26T08:03:00.286Z,45.5102
2023-03-26T08:04:23.424Z,45.2725
2023-03-26T08:05:03.597Z,45.0834
2023-03-26T08:06:05.134Z,44.9716
2023-03-26T08:07:06.803Z,45.1272
2023-03-26T08:08:08.443Z,45.0631
2023-03-26T08:09:10.109Z,45.0442
2023-03-26T08:10:12.016Z,45.1572
2023-03-26T08:11:13.422Z,45.2677
2023-03-26T08:12:15.039Z,45.3789
2023-03-26T08:13:16.732Z,45.5206
2023-03-26T08:14:18.336Z,45.5771
2023-03-26T08:15:20.037Z,45.6786
2023-03-26T08:16:21.666Z,45.6758
2023-03-26T08:17:23.346Z,45.6881
2023-03-26T08:18:24.942Z,45.6462
2023-03-26T08:19:26.612Z,45.8131
2023-03-26T08:20:28.339Z,45.5557
2023-03-26T08:21:29.918Z,45.3890
2023-03-26T08:22:31.591Z,45.3908
2023-03-26T08:23:33.220Z,45.6597
2023-03-26T08:24:34.893Z,45.6861
2023-03-26T08:25:38.001Z,45.7014
2023-03-26T08:26:38.146Z,45.7636
2023-03-26T08:27:39.809Z,45.9487
2023-03-26T08:28:41.471Z,46.0579
2023-03-26T08:29:43.133Z,45.8743
2023-03-26T08:30:44.812Z,45.6755
2023-03-26T08:31:46.411Z,45.6045
2023-03-26T08:32:48.132Z,45.8721
2023-03-26T08:33:49.731Z,46.0472
2023-03-26T08:34:51.402Z,45.9615
2023-03-26T08:35:53.132Z,45.9571
2023-03-26T08:36:54.721Z,45.9179
2023-03-26T08:37:56.332Z,45.9581
2023-03-26T08:38:58.001Z,45.9700
2023-03-26T08:39:59.643Z,46.0318
2023-03-26T08:41:01.332Z,46.0320
2023-03-26T08:42:02.931Z,45.9230
2023-03-26T08:43:04.602Z,45.8943
2023-03-26T08:44:06.260Z,45.8959
2023-03-26T08:45:07.927Z,45.9036
2023-03-26T08:46:09.597Z,45.9354
2023-03-26T08:47:11.204Z,45.8856
2023-03-26T08:48:12.844Z,45.9543
2023-03-26T08:49:14.501Z,45.9633
2023-03-26T08:50:16.238Z,45.9925
2023-03-26T08:51:17.836Z,45.9504
2023-03-26T08:52:19.446Z,45.9366
2023-03-26T08:53:21.116Z,46.0310
2023-03-26T08:54:22.750Z,45.9909
2023-03-26T08:55:24.423Z,45.9471
2023-03-26T08:56:26.098Z,45.9609
2023-03-26T08:57:27.716Z,45.9916
2023-03-26T08:58:29.352Z,45.9977
2023-03-26T08:59:31.029Z,45.9564
2023-03-26T09:00:32.663Z,45.9192
2023-03-26T09:01:34.393Z,45.9537
2023-03-26T09:02:36.030Z,45.8826
2023-03-26T09:03:37.625Z,45.9388
2023-03-26T09:04:39.272Z,45.9408
2023-03-26T09:05:40.958Z,45.9084
2023-03-26T09:06:42.646Z,46.0067
2023-03-26T09:07:44.293Z,46.0094
2023-03-26T09:08:54.212Z,45.9689
2023-03-26T09:09:47.505Z,45.9194
2023-03-26T09:10:49.154Z,45.8873
2023-03-26T09:11:50.823Z,45.8543
2023-03-26T09:12:52.440Z,45.9663
2023-03-26T09:13:54.132Z,45.9840
2023-03-26T09:14:55.757Z,45.9077
2023-03-26T09:15:57.511Z,45.8629
2023-03-26T09:16:59.080Z,45.8652
2023-03-26T09:18:00.762Z,45.8535
2023-03-26T09:19:02.345Z,45.8059
2023-03-26T09:20:04.026Z,45.8334
2023-03-26T09:21:05.673Z,45.8312
2023-03-26T09:22:07.380Z,45.8792
2023-03-26T09:23:08.960Z,45.8511
2023-03-26T09:24:10.624Z,45.8655
2023-03-26T09:25:12.276Z,45.7953
2023-03-26T09:26:13.929Z,45.7679
2023-03-26T09:27:15.589Z,45.8160
2023-03-26T09:28:17.225Z,45.7529
2023-03-26T09:29:18.855Z,45.7874
2023-03-26T09:30:20.505Z,45.7505
2023-03-26T09:31:22.202Z,45.7338
2023-03-26T09:32:23.942Z,45.7581
2023-03-26T09:33:25.477Z,45.7957
2023-03-26T09:34:27.144Z,45.8115
2023-03-26T09:35:28.764Z,45.7217
2023-03-26T09:36:30.472Z,45.7301
2023-03-26T09:37:32.083Z,45.7669
2023-03-26T09:38:33.741Z,45.7306
2023-03-26T09:39:35.363Z,45.6514
2023-03-26T09:40:37.035Z,45.8448
2023-03-26T09:41:38.658Z,45.8260
2023-03-26T09:42:40.359Z,46.5050
2023-03-26T09:43:41.996Z,42.9105
2023-03-26T09:44:43.628Z,43.5925
2023-03-26T09:45:45.275Z,45.9682
2023-03-26T09:46:46.936Z,45.8711
2023-03-26T09:47:48.648Z,45.7924
2023-03-26T09:48:50.237Z,45.9361
2023-03-26T09:49:51.865Z,45.8794
2023-03-26T09:50:53.719Z,46.0254
2023-03-26T09:51:55.146Z,46.1815
2023-03-26T09:52:56.845Z,46.2749
2023-03-26T09:53:58.447Z,46.2747
2023-03-26T09:55:00.162Z,46.2081
2023-03-26T09:56:01.772Z,46.2065
2023-03-26T09:57:03.465Z,46.1830
2023-03-26T09:58:05.134Z,46.2473
2023-03-26T09:59:06.854Z,46.2931
2023-03-26T10:00:08.423Z,46.2580
2023-03-26T10:01:10.144Z,46.1306
2023-03-26T10:02:11.717Z,46.0061
2023-03-26T10:03:13.465Z,40.9464
2023-03-26T10:04:15.024Z,38.3586
2023-03-26T10:05:16.690Z,38.1673
2023-03-26T10:06:18.313Z,39.0132
2023-03-26T10:07:19.984Z,39.3095
2023-03-26T10:08:21.641Z,39.3606
2023-03-26T10:09:23.290Z,39.3279
2023-03-26T10:10:24.906Z,39.5935
2023-03-26T10:11:26.588Z,39.8382
2023-03-26T10:12:28.222Z,41.2545
2023-03-26T10:13:29.928Z,41.5530
2023-03-26T10:14:31.532Z,41.5858
2023-03-26T10:15:33.198Z,41.3534
2023-03-26T10:16:34.880Z,41.6641
2023-03-26T10:17:37.179Z,41.6911
2023-03-26T10:18:38.166Z,41.6584
2023-03-26T10:19:39.808Z,41.8080
2023-03-26T10:20:41.434Z,41.6884
2023-03-26T10:21:43.096Z,41.8680
2023-03-26T10:22:44.742Z,41.9100
2023-03-26T10:23:46.425Z,41.8010
2023-03-26T10:24:48.044Z,41.8485
2023-03-26T10:25:49.745Z,42.0225
2023-03-26T10:27:08.589Z,41.9215
2023-03-26T10:27:53.014Z,41.9719
2023-03-26T10:28:54.677Z,41.9993
2023-03-26T10:29:56.325Z,42.0591
2023-03-26T10:30:58.118Z,42.1564
2023-03-26T10:31:59.616Z,42.2433
2023-03-26T10:33:01.324Z,42.2881
2023-03-26T10:34:02.959Z,42.2467
2023-03-26T10:35:04.555Z,42.2668
2023-03-26T10:36:06.251Z,42.3461
2023-03-26T10:37:07.851Z,42.3960
2023-03-26T10:38:09.527Z,42.4244
2023-03-26T10:39:11.183Z,42.4395
2023-03-26T10:40:12.830Z,42.4362
2023-03-26T10:41:14.491Z,42.4769
2023-03-26T10:42:16.123Z,42.5374
2023-03-26T10:43:17.763Z,42.5409
2023-03-26T10:44:19.508Z,42.5838
2023-03-26T10:45:21.096Z,42.6306
2023-03-26T10:46:22.772Z,42.6822
2023-03-26T10:47:24.432Z,42.7268
2023-03-26T10:48:26.054Z,42.7664
2023-03-26T10:49:27.750Z,42.6559
2023-03-26T10:50:29.362Z,42.7530
2023-03-26T10:51:30.972Z,42.8362
2023-03-26T10:52:32.670Z,42.8644
2023-03-26T10:53:34.295Z,42.8592
2023-03-26T10:54:35.999Z,42.9665
2023-03-26T10:55:37.596Z,42.9758
2023-03-26T10:56:39.290Z,43.0538
2023-03-26T10:57:40.896Z,43.0495
2023-03-26T10:58:48.590Z,43.0859
2023-03-26T10:59:44.247Z,43.1453
2023-03-26T11:00:45.892Z,43.2083
2023-03-26T11:01:47.524Z,43.2353
2023-03-26T11:02:49.225Z,43.2670
2023-03-26T11:03:50.827Z,43.2857
2023-03-26T11:04:52.517Z,43.2913
2023-03-26T11:05:54.191Z,43.3037
2023-03-26T11:06:55.800Z,43.3469
2023-03-26T11:07:57.430Z,43.4949
2023-03-26T11:08:59.136Z,43.5178
2023-03-26T11:10:00.746Z,43.5773
2023-03-26T11:11:02.395Z,43.7755
2023-03-26T11:12:26.223Z,44.0135
2023-03-26T11:13:05.691Z,44.0897
2023-03-26T11:14:07.339Z,44.1241
2023-03-26T11:15:09.106Z,43.9245
2023-03-26T11:16:10.642Z,44.0250
2023-03-26T11:17:14.915Z,44.2022
2023-03-26T11:18:13.963Z,44.0781
2023-03-26T11:19:15.591Z,44.4295
2023-03-26T11:20:17.292Z,44.4481
2023-03-26T11:21:20.635Z,44.0837
2023-03-26T11:22:20.527Z,44.3285
2023-03-26T11:23:22.211Z,44.2545
2023-03-26T11:24:23.812Z,44.2450
2023-03-26T11:25:25.532Z,44.2677
2023-03-26T11:26:27.137Z,44.2501
2023-03-26T11:27:28.792Z,44.1887
2023-03-26T11:28:30.446Z,44.3598
2023-03-26T11:29:33.494Z,44.5152
2023-03-26T11:30:33.767Z,44.9392
2023-03-26T11:31:35.433Z,44.8512
2023-03-26T11:32:37.070Z,44.7681
2023-03-26T11:33:38.689Z,44.5932
2023-03-26T11:34:40.347Z,44.5266
2023-03-26T11:35:42.013Z,44.6345
2023-03-26T11:36:43.630Z,44.7178
2023-03-26T11:37:45.308Z,44.7318
2023-03-26T11:38:46.965Z,44.7546
2023-03-26T11:39:48.584Z,44.7565
2023-03-26T11:40:50.249Z,44.7223
2023-03-26T11:41:51.901Z,44.8067
2023-03-26T11:42:53.540Z,44.9734
2023-03-26T11:43:55.217Z,44.9137
2023-03-26T11:44:56.861Z,44.8345
2023-03-26T11:45:58.550Z,44.7848
2023-03-26T11:47:00.126Z,44.8020
2023-03-26T11:48:01.854Z,44.7132
2023-03-26T11:49:03.407Z,44.6962
2023-03-26T11:50:05.143Z,44.7379
2023-03-26T11:51:06.783Z,44.7554
2023-03-26T11:52:08.393Z,44.7588
2023-03-26T11:53:10.039Z,44.6978
2023-03-26T11:54:11.714Z,44.7087
2023-03-26T11:55:13.343Z,44.7217
2023-03-26T11:56:15.174Z,44.8053
2023-03-26T11:57:16.694Z,44.7970
2023-03-26T11:58:18.307Z,44.8113
2023-03-26T11:59:21.650Z,44.8597
2023-03-26T12:00:21.607Z,44.8057
2023-03-26T12:01:23.250Z,44.8254
2023-03-26T12:02:25.076Z,44.8079
2023-03-26T12:03:26.551Z,44.8872
2023-03-26T12:04:30.604Z,44.9182
2023-03-26T12:05:29.840Z,44.8935
2023-03-26T12:06:31.536Z,44.9462
2023-03-26T12:07:33.146Z,44.9191
2023-03-26T12:08:34.814Z,44.9081
2023-03-26T12:09:36.444Z,44.8810
2023-03-26T12:10:38.543Z,44.8891
2023-03-26T12:11:39.771Z,44.9219
2023-03-26T12:12:41.424Z,44.9050
2023-03-26T12:13:43.052Z,44.9120
2023-03-26T12:14:44.703Z,44.9159
2023-03-26T12:15:46.350Z,44.9378
2023-03-26T12:16:48.060Z,44.9390
2023-03-26T12:17:49.651Z,44.9169
2023-03-26T12:18:51.307Z,44.9127
2023-03-26T12:19:52.947Z,44.9441
2023-03-26T12:20:54.734Z,44.9661
2023-03-26T12:21:56.265Z,44.9496
2023-03-26T12:22:57.913Z,44.9412
2023-03-26T12:23:59.548Z,44.9445
2023-03-26T12:25:01.200Z,44.9759